Time;durP1;ratioP1;P1;durP2;ratioP2;P2;SDS_P1;SDS_P2;PMS_P1;PMS_P2;Temp;Humidity;BMP_temperature;BMP_pressure;BME280_temperature;BME280_humidity;BME280_pressure;Samples;Min_cycle;Max_cycle;Signal;HPM_P1;HPM_P2
2023/07/04 00:00:48;;;;;;;15.47;3.10;;;16.50;22.70;;;;;;5093362;28;20528;-67
2023/07/04 00:03:15;;;;;;;15.17;3.40;;;16.40;22.70;;;;;;5096010;28;20503;-67
2023/07/04 00:05:47;;;;;;;8.87;2.53;;;16.30;24.30;;;;;;5095648;28;20650;-67
2023/07/04 00:08:14;;;;;;;8.87;2.67;;;16.30;24.40;;;;;;5095858;28;20454;-67
2023/07/04 00:10:43;;;;;;;9.73;3.57;;;16.20;24.30;;;;;;5095504;28;20456;-67
2023/07/04 00:13:09;;;;;;;8.23;3.10;;;16.10;24.20;;;;;;5095455;28;20469;-67
2023/07/04 00:15:44;;;;;;;8.40;3.07;;;16.10;24.20;;;;;;5095422;28;20929;-67
2023/07/04 00:18:11;;;;;;;9.53;2.97;;;16.00;24.70;;;;;;5095644;28;20453;-67
2023/07/04 00:20:38;;;;;;;8.10;2.90;;;15.90;25.30;;;;;;5095443;28;20454;-67
2023/07/04 00:23:05;;;;;;;11.70;3.63;;;15.90;26.40;;;;;;5095453;28;20454;-66
2023/07/04 00:25:32;;;;;;;9.90;2.30;;;15.90;26.30;;;;;;5094995;28;20900;-67
2023/07/04 00:28:02;;;;;;;13.83;2.87;;;15.80;26.80;;;;;;5095304;28;20945;-67
2023/07/04 00:30:29;;;;;;;11.70;3.20;;;15.80;27.20;;;;;;5095330;28;20488;-67
2023/07/04 00:32:57;;;;;;;12.40;3.30;;;15.70;28.10;;;;;;5095186;28;20564;-67
2023/07/04 00:35:24;;;;;;;17.07;3.20;;;15.70;27.90;;;;;;5094825;28;20457;-67
2023/07/04 00:37:51;;;;;;;12.10;3.27;;;15.60;28.70;;;;;;5095188;28;20822;-67
2023/07/04 00:40:18;;;;;;;18.07;3.03;;;15.60;29.60;;;;;;5094797;28;20809;-67
2023/07/04 00:42:45;;;;;;;10.20;3.30;;;15.50;30.00;;;;;;5095073;28;20458;-66
2023/07/04 00:45:19;;;;;;;8.40;2.60;;;15.50;31.10;;;;;;5094821;28;20458;-67
2023/07/04 00:47:53;;;;;;;8.50;2.67;;;15.50;31.10;;;;;;5095104;28;20536;-67
2023/07/04 00:50:24;;;;;;;9.73;3.30;;;15.40;31.00;;;;;;5095310;28;20858;-67
2023/07/04 00:52:53;;;;;;;11.40;2.93;;;15.30;30.90;;;;;;5094856;28;20473;-67
2023/07/04 00:55:20;;;;;;;12.60;3.37;;;15.30;31.00;;;;;;5094505;28;20481;-67
2023/07/04 00:57:47;;;;;;;12.47;3.40;;;15.10;33.20;;;;;;5094800;28;20454;-67
2023/07/04 01:00:20;;;;;;;8.70;2.80;;;15.10;34.20;;;;;;5094608;28;20454;-67
2023/07/04 01:02:49;;;;;;;14.17;3.60;;;15.00;35.30;;;;;;5094714;28;20537;-67
2023/07/04 01:05:20;;;;;;;13.10;3.03;;;14.90;36.00;;;;;;5094318;28;20454;-67
2023/07/04 01:07:58;;;;;;;12.57;3.43;;;14.90;36.70;;;;;;5094926;28;20545;-67
2023/07/04 01:10:30;;;;;;;13.37;3.40;;;14.90;37.80;;;;;;5094495;28;20453;-67
2023/07/04 01:12:58;;;;;;;10.47;3.47;;;14.80;39.40;;;;;;5093573;28;20478;-67
2023/07/04 01:15:25;;;;;;;11.93;3.30;;;14.70;39.40;;;;;;5094061;28;20457;-67
2023/07/04 01:17:52;;;;;;;13.57;4.00;;;14.70;39.40;;;;;;5094212;28;20457;-67
2023/07/04 01:20:20;;;;;;;10.70;3.70;;;14.60;40.20;;;;;;5094247;28;20449;-67
2023/07/04 01:22:57;;;;;;;11.03;3.30;;;14.50;41.40;;;;;;5094380;28;20496;-67
2023/07/04 01:25:31;;;;;;;11.03;4.60;;;14.50;42.00;;;;;;5093828;28;20504;-67
2023/07/04 01:28:02;;;;;;;12.00;3.33;;;14.50;42.70;;;;;;5094200;28;20476;-67
2023/07/04 01:30:31;;;;;;;18.27;3.70;;;14.50;43.40;;;;;;5093795;28;20936;-67
2023/07/04 01:32:59;;;;;;;10.43;4.60;;;14.40;43.80;;;;;;5092883;28;20481;-67
2023/07/04 01:35:27;;;;;;;10.00;3.50;;;14.40;45.10;;;;;;5093698;28;20454;-67
2023/07/04 01:37:55;;;;;;;11.80;3.80;;;14.30;46.30;;;;;;5093893;28;20450;-67
2023/07/04 01:40:24;;;;;;;12.07;3.87;;;14.20;47.80;;;;;;5093716;28;20454;-67
2023/07/04 01:42:50;;;;;;;18.33;4.07;;;14.10;47.70;;;;;;5093701;28;20442;-67
2023/07/04 01:45:19;;;;;;;16.30;3.90;;;14.10;47.70;;;;;;5093478;28;20480;-67
2023/07/04 01:47:46;;;;;;;14.03;3.73;;;14.10;47.70;;;;;;5093992;28;20449;-67
2023/07/04 01:50:14;;;;;;;13.30;4.57;;;14.10;47.70;;;;;;5093682;28;20454;-67
2023/07/04 01:52:42;;;;;;;14.57;3.83;;;14.10;47.70;;;;;;5093723;28;20842;-67
2023/07/04 01:55:10;;;;;;;12.50;4.70;;;14.10;49.50;;;;;;5093187;28;20456;-67
2023/07/04 01:57:37;;;;;;;11.20;3.93;;;14.00;50.10;;;;;;5093527;28;20457;-67
2023/07/04 02:00:08;;;;;;;17.70;6.50;;;14.10;50.80;;;;;;5093612;28;20453;-67
2023/07/04 02:02:37;;;;;;;15.00;4.40;;;14.10;51.10;;;;;;5093510;28;20929;-67
2023/07/04 02:05:04;;;;;;;16.47;4.70;;;14.10;52.00;;;;;;5093259;28;20461;-67
2023/07/04 02:07:31;;;;;;;14.00;4.80;;;14.00;52.50;;;;;;5093403;28;20461;-67
2023/07/04 02:09:59;;;;;;;17.80;4.20;;;14.10;52.80;;;;;;5093055;28;20464;-67
2023/07/04 02:12:25;;;;;;;10.87;4.27;;;14.10;53.40;;;;;;5093547;28;20807;-67
2023/07/04 02:14:52;;;;;;;18.77;4.70;;;14.00;53.90;;;;;;5093104;28;20462;-67
2023/07/04 02:17:19;;;;;;;8.90;3.87;;;14.00;54.70;;;;;;5093305;28;20454;-67
2023/07/04 02:19:47;;;;;;;14.30;4.73;;;14.00;55.30;;;;;;5092756;28;20945;-67
2023/07/04 02:22:14;;;;;;;15.00;4.93;;;14.00;56.30;;;;;;5093135;28;20460;-62
2023/07/04 02:24:41;;;;;;;9.60;4.63;;;14.00;56.30;;;;;;5092650;28;20809;-61
2023/07/04 02:27:07;;;;;;;16.57;5.00;;;14.00;56.30;;;;;;5093233;28;20490;-61
2023/07/04 02:29:35;;;;;;;16.47;5.07;;;14.10;56.40;;;;;;5093035;28;20804;-61
2023/07/04 02:32:02;;;;;;;22.07;5.27;;;14.00;56.30;;;;;;5093041;28;20514;-61
2023/07/04 02:34:28;;;;;;;15.33;5.33;;;14.00;56.30;;;;;;5092945;28;20481;-61
2023/07/04 02:36:56;;;;;;;14.43;4.40;;;14.00;56.30;;;;;;5092482;28;20526;-61
2023/07/04 02:39:26;;;;;;;18.50;5.77;;;14.00;56.90;;;;;;5092595;28;20453;-61
2023/07/04 02:41:52;;;;;;;13.53;5.40;;;14.00;57.80;;;;;;5093013;28;20511;-61
2023/07/04 02:44:19;;;;;;;13.00;5.67;;;14.00;58.20;;;;;;5092606;28;20460;-61
2023/07/04 02:46:46;;;;;;;17.63;5.90;;;14.00;58.70;;;;;;5092423;28;20457;-61
2023/07/04 02:49:13;;;;;;;11.80;6.00;;;14.00;59.10;;;;;;5092709;28;20456;-61
2023/07/04 02:51:40;;;;;;;13.60;5.70;;;14.00;59.70;;;;;;5092595;28;20454;-61
2023/07/04 02:54:08;;;;;;;15.87;5.93;;;13.90;60.20;;;;;;5092313;28;20478;-61
2023/07/04 02:56:35;;;;;;;18.43;8.30;;;13.90;60.90;;;;;;5092393;28;20793;-61
2023/07/04 02:59:02;;;;;;;16.40;7.67;;;13.90;61.60;;;;;;5092561;28;20487;-62
2023/07/04 03:01:29;;;;;;;10.83;8.37;;;13.90;62.20;;;;;;5092346;28;20485;-61
2023/07/04 03:03:56;;;;;;;15.27;10.07;;;13.90;62.30;;;;;;5092391;28;20454;-61
2023/07/04 03:06:23;;;;;;;23.83;9.83;;;13.90;63.00;;;;;;5091913;28;20453;-61
2023/07/04 03:08:49;;;;;;;19.60;12.40;;;13.90;63.70;;;;;;5092601;28;20820;-61
2023/07/04 03:11:17;;;;;;;14.70;9.80;;;13.80;64.40;;;;;;5092370;28;20446;-62
2023/07/04 03:13:44;;;;;;;16.57;12.07;;;13.80;64.40;;;;;;5092214;28;20477;-62
2023/07/04 03:16:11;;;;;;;18.70;15.70;;;13.70;64.40;;;;;;5092076;28;20921;-62
2023/07/04 03:18:38;;;;;;;22.17;20.10;;;13.70;64.40;;;;;;5092391;28;20479;-62
2023/07/04 03:21:05;;;;;;;24.37;21.20;;;13.70;64.40;;;;;;5091996;28;20545;-62
2023/07/04 03:23:32;;;;;;;25.10;23.50;;;13.70;65.60;;;;;;5092167;28;20971;-62
2023/07/04 03:25:58;;;;;;;30.07;28.07;;;13.70;65.90;;;;;;5091983;28;20484;-62
2023/07/04 03:28:26;;;;;;;37.40;35.30;;;13.60;66.90;;;;;;5092449;28;20457;-61
2023/07/04 03:30:54;;;;;;;36.13;33.90;;;13.60;67.70;;;;;;5092199;28;20453;-61
2023/07/04 03:33:21;;;;;;;30.97;28.10;;;13.60;68.30;;;;;;5092046;28;20473;-62
2023/07/04 03:35:49;;;;;;;51.80;49.13;;;13.60;68.70;;;;;;5093699;28;20452;-61
2023/07/04 03:38:15;;;;;;;40.90;38.43;;;13.70;69.00;;;;;;5096168;28;20456;-62
2023/07/04 03:40:43;;;;;;;49.53;46.90;;;13.70;68.70;;;;;;5096057;28;20456;-62
2023/07/04 03:43:10;;;;;;;51.47;47.83;;;13.70;69.20;;;;;;5096253;28;20461;-62
2023/07/04 03:45:38;;;;;;;52.37;49.30;;;13.70;69.60;;;;;;5095589;28;20945;-61
2023/07/04 03:48:05;;;;;;;55.77;52.50;;;13.70;70.00;;;;;;5096042;28;20456;-61
2023/07/04 03:50:32;;;;;;;46.17;43.87;;;13.70;70.20;;;;;;5096076;28;20452;-61
2023/07/04 03:52:59;;;;;;;51.23;47.53;;;13.70;70.40;;;;;;5095476;28;20453;-61
2023/07/04 03:55:26;;;;;;;57.83;54.33;;;13.70;70.50;;;;;;5095530;28;20450;-61
2023/07/04 03:57:52;;;;;;;52.30;49.80;;;13.60;71.00;;;;;;5096155;28;20449;-61
2023/07/04 04:00:20;;;;;;;42.17;39.37;;;13.70;70.90;;;;;;5095623;28;20448;-61
2023/07/04 04:02:48;;;;;;;56.67;53.17;;;13.70;70.40;;;;;;5095946;28;20460;-61
2023/07/04 04:05:14;;;;;;;47.40;44.37;;;13.80;70.60;;;;;;5095522;28;20461;-61
2023/07/04 04:07:41;;;;;;;42.13;38.77;;;13.90;70.30;;;;;;5095985;28;20465;-61
2023/07/04 04:10:09;;;;;;;38.17;35.27;;;13.80;70.20;;;;;;5095644;28;20449;-62
2023/07/04 04:12:36;;;;;;;41.33;38.60;;;13.80;70.10;;;;;;5095769;28;20816;-61
2023/07/04 04:15:03;;;;;;;40.63;37.87;;;13.90;70.70;;;;;;5094983;28;20478;-61
2023/07/04 04:17:30;;;;;;;33.50;31.30;;;13.90;70.40;;;;;;5095928;28;20450;-62
2023/07/04 04:19:58;;;;;;;40.00;37.00;;;13.90;70.50;;;;;;5095661;28;20456;-61
2023/07/04 04:22:25;;;;;;;37.03;34.07;;;13.90;71.00;;;;;;5095487;28;20456;-62
2023/07/04 04:24:51;;;;;;;38.50;35.60;;;13.90;70.80;;;;;;5095123;28;21051;-61
2023/07/04 04:27:18;;;;;;;27.37;25.13;;;13.90;70.70;;;;;;5095362;28;20453;-62
2023/07/04 04:29:45;;;;;;;35.57;33.03;;;14.00;70.40;;;;;;5095009;28;20454;-61
2023/07/04 04:32:12;;;;;;;26.23;23.20;;;14.00;70.10;;;;;;5095699;28;20464;-62
2023/07/04 04:34:39;;;;;;;28.63;26.87;;;14.00;69.70;;;;;;5094747;28;20488;-61
2023/07/04 04:37:07;;;;;;;26.23;24.00;;;14.10;70.40;;;;;;5095172;28;20459;-61
2023/07/04 04:39:34;;;;;;;19.77;17.37;;;14.10;70.00;;;;;;5095027;28;20821;-61
2023/07/04 04:42:00;;;;;;;20.10;16.83;;;14.20;69.40;;;;;;5095083;28;20450;-62
2023/07/04 04:44:28;;;;;;;22.20;15.87;;;14.20;68.90;;;;;;5094703;28;20468;-62
2023/07/04 04:46:55;;;;;;;16.53;13.77;;;14.30;68.20;;;;;;5093379;28;20941;-62
2023/07/04 04:49:22;;;;;;;14.20;10.57;;;14.40;67.10;;;;;;5094898;28;20450;-62
2023/07/04 04:51:51;;;;;;;17.57;9.90;;;14.50;67.10;;;;;;5095054;28;20450;-61
2023/07/04 04:54:20;;;;;;;16.37;8.30;;;14.50;65.10;;;;;;5094807;28;20481;-61
2023/07/04 04:56:47;;;;;;;25.03;9.00;;;14.60;65.20;;;;;;5094176;28;20786;-61
2023/07/04 04:59:14;;;;;;;16.37;7.77;;;14.70;65.30;;;;;;5094920;28;20454;-62
2023/07/04 05:01:41;;;;;;;20.43;6.33;;;14.70;65.30;;;;;;5094702;28;20794;-61
2023/07/04 05:04:07;;;;;;;17.03;5.93;;;14.80;65.30;;;;;;5094545;28;20468;-61
2023/07/04 05:06:36;;;;;;;12.40;5.10;;;14.80;65.40;;;;;;5094184;28;20835;-61
2023/07/04 05:09:04;;;;;;;19.27;7.30;;;14.90;65.40;;;;;;5094387;28;20453;-64
2023/07/04 05:11:33;;;;;;;19.40;6.90;;;14.90;65.40;;;;;;5092945;28;21015;-61
2023/07/04 05:14:00;;;;;;;18.27;5.80;;;15.00;65.50;;;;;;5094256;28;20474;-61
2023/07/04 05:16:27;;;;;;;15.37;6.70;;;15.00;65.50;;;;;;5094501;28;20454;-61
2023/07/04 05:18:54;;;;;;;14.23;5.30;;;15.10;65.60;;;;;;5094463;28;20449;-61
2023/07/04 05:21:23;;;;;;;13.87;5.03;;;15.20;63.60;;;;;;5094384;28;20450;-62
2023/07/04 05:23:52;;;;;;;19.10;5.17;;;15.30;61.70;;;;;;5094099;28;20797;-62
2023/07/04 05:26:20;;;;;;;13.70;4.30;;;15.60;61.20;;;;;;5094028;28;20477;-61
2023/07/04 05:28:49;;;;;;;14.30;3.97;;;15.80;59.20;;;;;;5094321;28;20471;-61
2023/07/04 05:31:17;;;;;;;11.20;4.20;;;16.00;58.20;;;;;;5094024;28;20458;-62
2023/07/04 05:33:45;;;;;;;12.57;3.93;;;16.20;56.20;;;;;;5093942;28;20481;-62
2023/07/04 05:36:14;;;;;;;15.93;3.90;;;16.30;53.80;;;;;;5094200;28;20907;-62
2023/07/04 05:38:42;;;;;;;11.27;3.50;;;16.50;53.40;;;;;;5094162;28;20822;-62
2023/07/04 05:41:09;;;;;;;16.77;3.80;;;16.60;53.10;;;;;;5093888;28;20481;-62
2023/07/04 05:43:37;;;;;;;15.57;4.07;;;16.70;50.10;;;;;;5093816;28;20469;-62
2023/07/04 05:46:05;;;;;;;16.97;4.80;;;16.90;50.30;;;;;;5093359;28;20518;-61
2023/07/04 05:48:33;;;;;;;11.70;4.17;;;17.10;50.50;;;;;;5093568;28;20457;-62
2023/07/04 05:51:02;;;;;;;16.57;4.50;;;17.20;49.10;;;;;;5093501;28;20941;-62
2023/07/04 05:53:31;;;;;;;13.73;4.30;;;17.40;49.60;;;;;;5093437;28;20461;-62
2023/07/04 05:56:08;;;;;;;11.63;3.80;;;17.60;48.30;;;;;;5092629;28;20512;-62
2023/07/04 05:58:36;;;;;;;13.10;4.10;;;17.50;46.10;;;;;;5092847;28;20450;-62
2023/07/04 06:01:09;;;;;;;15.90;4.40;;;17.40;46.40;;;;;;5092929;28;20819;-62
2023/07/04 06:03:36;;;;;;;14.80;4.00;;;17.40;45.90;;;;;;5093418;28;20473;-62
2023/07/04 06:06:04;;;;;;;16.87;3.80;;;17.70;45.80;;;;;;5092794;28;20450;-62
2023/07/04 06:08:32;;;;;;;23.27;3.43;;;17.80;45.20;;;;;;5092517;28;20548;-62
2023/07/04 06:11:00;;;;;;;17.50;4.37;;;17.80;44.40;;;;;;5090043;28;20450;-62
2023/07/04 06:13:27;;;;;;;20.03;4.10;;;18.00;43.10;;;;;;5092200;28;20937;-62
2023/07/04 06:15:54;;;;;;;18.40;3.93;;;18.30;42.80;;;;;;5091435;28;20474;-62
2023/07/04 06:18:22;;;;;;;13.37;4.10;;;18.50;42.90;;;;;;5092177;28;20489;-62
2023/07/04 06:20:48;;;;;;;19.60;4.00;;;18.50;39.70;;;;;;5091950;28;20957;-62
2023/07/04 06:23:16;;;;;;;10.50;3.47;;;18.30;39.20;;;;;;5092015;28;20457;-61
2023/07/04 06:25:42;;;;;;;12.60;3.70;;;18.50;37.50;;;;;;5091677;28;20446;-62
2023/07/04 06:28:09;;;;;;;10.70;4.03;;;18.60;38.30;;;;;;5092080;28;20468;-61
2023/07/04 06:30:38;;;;;;;12.80;4.10;;;18.60;37.60;;;;;;5091345;28;20465;-61
2023/07/04 06:33:06;;;;;;;14.10;4.70;;;18.40;39.50;;;;;;5091917;28;20558;-61
2023/07/04 06:35:41;;;;;;;15.73;4.17;;;18.30;39.80;;;;;;5091740;28;20485;-62
2023/07/04 06:38:07;;;;;;;11.27;3.70;;;18.60;37.80;;;;;;5091755;28;20449;-61
2023/07/04 06:40:34;;;;;;;18.13;4.20;;;18.60;36.10;;;;;;5091422;28;20942;-61
2023/07/04 06:43:03;;;;;;;10.13;3.70;;;18.50;36.30;;;;;;5091519;28;20472;-62
2023/07/04 06:45:31;;;;;;;12.33;4.13;;;18.20;39.10;;;;;;5091316;28;21013;-61
2023/07/04 06:47:58;;;;;;;13.97;4.00;;;18.20;39.00;;;;;;5091757;28;20966;-62
2023/07/04 06:50:25;;;;;;;10.17;3.40;;;18.40;37.10;;;;;;5091447;28;20941;-61
2023/07/04 06:52:53;;;;;;;11.70;3.60;;;18.80;34.60;;;;;;5091415;28;20503;-61
2023/07/04 06:55:21;;;;;;;12.10;3.33;;;19.00;34.30;;;;;;5091611;28;20509;-62
2023/07/04 06:57:48;;;;;;;12.30;3.50;;;19.40;34.70;;;;;;5091054;28;20454;-62
2023/07/04 07:00:15;;;;;;;17.60;4.10;;;19.60;33.50;;;;;;5093280;28;20456;-62
2023/07/04 07:02:41;;;;;;;11.97;3.97;;;20.00;30.40;;;;;;5092196;28;20460;-61
2023/07/04 07:05:08;;;;;;;11.33;3.80;;;19.90;30.60;;;;;;5094205;28;20445;-62
2023/07/04 07:07:35;;;;;;;14.73;4.33;;;20.30;28.40;;;;;;5093701;28;20953;-67
2023/07/04 07:10:03;;;;;;;15.20;3.77;;;20.50;27.40;;;;;;5093243;28;20458;-67
2023/07/04 07:12:31;;;;;;;14.70;4.23;;;20.60;29.30;;;;;;5092714;28;20457;-68
2023/07/04 07:14:58;;;;;;;10.60;3.23;;;20.50;27.40;;;;;;5092049;28;20843;-67
2023/07/04 07:17:25;;;;;;;10.00;2.80;;;20.70;28.20;;;;;;5092611;28;20820;-67
2023/07/04 07:19:51;;;;;;;15.60;3.23;;;20.40;25.90;;;;;;5092061;28;20473;-67
2023/07/04 07:22:18;;;;;;;14.97;3.70;;;20.00;27.00;;;;;;5092360;28;20828;-67
2023/07/04 07:24:45;;;;;;;21.00;4.53;;;20.30;28.90;;;;;;5091663;28;20446;-67
2023/07/04 07:27:13;;;;;;;16.90;3.80;;;20.30;26.10;;;;;;5092475;28;20841;-67
2023/07/04 07:29:40;;;;;;;18.00;4.33;;;20.50;27.40;;;;;;5092296;28;20453;-67
2023/07/04 07:32:08;;;;;;;13.10;3.40;;;20.90;25.30;;;;;;5092359;28;20454;-67
2023/07/04 07:34:36;;;;;;;13.20;3.30;;;20.50;24.50;;;;;;5092145;28;20480;-67
2023/07/04 07:37:03;;;;;;;13.07;3.87;;;20.40;26.10;;;;;;5092155;28;20454;-67
2023/07/04 07:39:30;;;;;;;12.00;3.40;;;20.60;26.30;;;;;;5092057;28;21013;-67
2023/07/04 07:41:57;;;;;;;14.27;3.90;;;21.10;24.80;;;;;;5092044;28;20457;-67
2023/07/04 07:44:25;;;;;;;12.97;3.73;;;21.00;23.20;;;;;;5092126;28;20458;-67
2023/07/04 07:46:52;;;;;;;12.20;3.43;;;21.00;22.70;;;;;;5091708;28;20455;-67
2023/07/04 07:49:18;;;;;;;14.67;4.00;;;20.60;23.60;;;;;;5092286;28;20456;-67
2023/07/04 07:51:45;;;;;;;8.00;2.70;;;20.90;24.20;;;;;;5091794;28;20457;-67
2023/07/04 07:54:14;;;;;;;14.83;3.27;;;21.00;22.70;;;;;;5092099;28;20491;-67
2023/07/04 07:56:44;;;;;;;16.00;3.67;;;21.10;22.00;;;;;;5091858;28;20449;-67
2023/07/04 07:59:11;;;;;;;11.80;3.10;;;21.70;23.40;;;;;;5092079;28;20456;-67
2023/07/04 08:01:39;;;;;;;12.07;3.30;;;22.20;21.30;;;;;;5091772;28;20493;-67
2023/07/04 08:04:07;;;;;;;14.07;2.87;;;22.10;18.50;;;;;;5091913;28;20460;-67
2023/07/04 08:06:37;;;;;;;14.20;3.77;;;22.30;20.30;;;;;;5091465;28;20959;-67
2023/07/04 08:09:05;;;;;;;9.00;3.10;;;21.80;13.70;;;;;;5092262;28;20464;-67
2023/07/04 08:11:32;;;;;;;10.53;3.03;;;21.40;13.80;;;;;;5091944;28;20454;-67
2023/07/04 08:14:00;;;;;;;11.40;3.50;;;20.90;17.40;;;;;;5091881;28;20453;-67
2023/07/04 08:16:28;;;;;;;13.53;3.20;;;20.80;20.30;;;;;;5091693;28;20823;-67
2023/07/04 08:18:59;;;;;;;12.10;3.47;;;20.60;20.10;;;;;;5091764;28;20457;-67
2023/07/04 08:21:28;;;;;;;12.17;3.97;;;20.80;21.00;;;;;;5092648;28;20940;-67
2023/07/04 08:23:55;;;;;;;9.87;2.63;;;20.80;17.50;;;;;;5095409;28;20457;-64
2023/07/04 08:26:25;;;;;;;10.40;3.57;;;21.20;18.20;;;;;;5096680;28;20456;-65
2023/07/04 08:28:53;;;;;;;8.53;2.63;;;21.70;15.90;;;;;;5096801;28;20453;-65
2023/07/04 08:31:20;;;;;;;11.13;3.03;;;21.80;17.20;;;;;;5095915;28;20798;-65
2023/07/04 08:33:48;;;;;;;12.70;2.57;;;22.20;13.80;;;;;;5095756;28;20453;-65
2023/07/04 08:36:17;;;;;;;12.77;3.00;;;22.60;14.10;;;;;;5096315;28;21001;-65
2023/07/04 08:38:47;;;;;;;12.33;3.27;;;22.40;11.90;;;;;;5096333;28;20496;-66
2023/07/04 08:41:24;;;;;;;12.30;3.10;;;23.00;11.60;;;;;;5095850;28;20465;-65
2023/07/04 08:43:57;;;;;;;14.73;2.70;;;23.70;11.60;;;;;;5095025;28;20461;-65
2023/07/04 08:46:24;;;;;;;14.20;3.07;;;24.10;7.50;;;;;;5096534;28;20434;-65
2023/07/04 08:48:51;;;;;;;10.77;3.23;;;24.10;5.00;;;;;;5096407;28;20454;-65
2023/07/04 08:51:25;;;;;;;9.93;3.17;;;23.60;7.10;;;;;;5095628;28;20796;-65
2023/07/04 08:53:58;;;;;;;8.87;2.67;;;22.70;4.90;;;;;;5094854;28;20937;-65
2023/07/04 08:56:31;;;;;;;8.97;4.47;;;21.80;5.80;;;;;;5096229;28;20469;-65
2023/07/04 08:59:08;;;;;;;10.97;2.50;;;21.30;7.60;;;;;;5096208;28;20438;-65
2023/07/04 09:01:46;;;;;;;9.93;2.63;;;21.40;8.50;;;;;;5095135;28;20460;-65
2023/07/04 09:04:19;;;;;;;13.57;2.60;;;21.50;8.60;;;;;;5095136;28;20971;-66
2023/07/04 09:06:54;;;;;;;8.77;2.13;;;21.60;9.20;;;;;;5096065;28;20434;-65
2023/07/04 09:09:29;;;;;;;17.17;2.90;;;21.90;11.20;;;;;;5096078;28;20442;-66
2023/07/04 09:11:56;;;;;;;12.00;3.40;;;22.30;9.70;;;;;;5094263;28;20456;-65
2023/07/04 09:14:30;;;;;;;10.73;2.10;;;22.70;6.50;;;;;;5094732;28;20468;-65
2023/07/04 09:16:57;;;;;;;10.67;3.63;;;22.80;4.70;;;;;;5095874;28;20465;-65
2023/07/04 09:19:24;;;;;;;12.13;3.00;;;23.20;6.80;;;;;;5095609;28;20489;-66
2023/07/04 09:21:52;;;;;;;8.83;2.57;;;23.50;7.10;;;;;;5094089;28;20454;-65
2023/07/04 09:24:19;;;;;;;10.10;3.30;;;23.30;3.50;;;;;;5095387;28;20453;-65
2023/07/04 09:26:50;;;;;;;13.53;2.77;;;23.80;3.70;;;;;;5095792;28;20822;-66
2023/07/04 09:29:19;;;;;;;15.30;3.20;;;23.40;4.10;;;;;;5095418;28;20466;-64
2023/07/04 09:31:47;;;;;;;10.97;2.43;;;22.90;4.30;;;;;;5094114;28;20527;-64
2023/07/04 09:34:17;;;;;;;10.13;2.20;;;23.90;2.10;;;;;;5094410;28;20450;-63
2023/07/04 09:36:43;;;;;;;6.80;2.57;;;23.60;1.10;;;;;;5095410;28;20481;-64
2023/07/04 09:39:12;;;;;;;6.97;2.00;;;24.20;1.00;;;;;;5095510;28;20494;-64
2023/07/04 09:41:41;;;;;;;9.37;2.83;;;24.30;1.00;;;;;;5094089;28;20945;-64
2023/07/04 09:44:19;;;;;;;13.33;3.00;;;23.80;1.00;;;;;;5094135;28;20457;-64
2023/07/04 09:46:53;;;;;;;9.20;2.63;;;24.90;1.10;;;;;;5095108;28;20469;-64
2023/07/04 09:49:23;;;;;;;8.57;2.53;;;24.90;1.00;;;;;;5095025;28;20478;-64
2023/07/04 09:52:02;;;;;;;10.57;3.00;;;24.80;1.00;;;;;;5093864;28;20818;-64
2023/07/04 09:54:32;;;;;;;10.73;2.87;;;24.60;1.00;;;;;;5094049;28;20456;-64
2023/07/04 09:57:19;;;;;;;10.83;3.40;;;24.90;1.00;;;;;;5094715;28;20480;-64
2023/07/04 09:59:46;;;;;;;10.00;2.70;;;24.50;1.00;;;;;;5095122;28;20457;-66
2023/07/04 10:02:17;;;;;;;10.60;2.77;;;24.60;1.00;;;;;;5093389;28;20453;-67
2023/07/04 10:04:49;;;;;;;16.33;3.53;;;24.30;1.00;;;;;;5092351;28;20949;-67
2023/07/04 10:07:19;;;;;;;9.60;3.60;;;23.60;1.00;;;;;;5092571;28;21009;-67
2023/07/04 10:09:52;;;;;;;11.43;3.03;;;23.60;1.00;;;;;;5092670;28;20877;-67
2023/07/04 10:12:19;;;;;;;10.23;3.70;;;23.50;1.00;;;;;;5092711;28;20511;-67
2023/07/04 10:14:49;;;;;;;11.20;3.90;;;23.90;1.00;;;;;;5092121;28;20461;-67
2023/07/04 10:17:19;;;;;;;9.97;3.10;;;24.60;1.00;;;;;;5093501;28;20477;-67
2023/07/04 10:19:48;;;;;;;10.27;3.90;;;25.00;1.00;;;;;;5092956;28;20450;-67
2023/07/04 10:22:24;;;;;;;10.70;3.00;;;25.00;1.00;;;;;;5093417;28;20874;-67
2023/07/04 10:24:52;;;;;;;16.10;3.77;;;25.00;1.00;;;;;;5092935;28;20456;-67
2023/07/04 10:27:22;;;;;;;10.90;3.60;;;25.30;1.00;;;;;;5093452;28;20446;-67
2023/07/04 10:29:54;;;;;;;13.60;3.47;;;25.70;1.00;;;;;;5092933;28;20450;-67
2023/07/04 10:32:22;;;;;;;10.20;3.60;;;26.30;1.00;;;;;;5092964;28;20496;-67
2023/07/04 10:34:50;;;;;;;10.30;3.90;;;26.60;1.00;;;;;;5092628;28;20461;-67
2023/07/04 10:37:22;;;;;;;8.23;3.60;;;26.70;1.00;;;;;;5093029;28;20474;-67
2023/07/04 10:39:55;;;;;;;14.73;3.97;;;27.00;1.00;;;;;;5092704;28;20501;-67
2023/07/04 10:42:27;;;;;;;10.30;4.13;;;26.60;1.00;;;;;;5092935;28;20461;-67
2023/07/04 10:44:57;;;;;;;9.03;3.70;;;26.80;1.00;;;;;;5091303;28;20456;-67
2023/07/04 10:47:28;;;;;;;11.30;4.10;;;27.00;1.00;;;;;;5092755;28;20451;-67
2023/07/04 10:49:59;;;;;;;11.07;3.77;;;26.90;1.00;;;;;;5092796;28;20576;-68
2023/07/04 10:52:31;;;;;;;10.27;4.10;;;26.50;1.00;;;;;;5092825;28;20457;-67
2023/07/04 10:55:00;;;;;;;9.20;4.33;;;26.20;1.00;;;;;;5092199;28;20451;-68
2023/07/04 10:57:31;;;;;;;9.60;3.93;;;26.50;1.00;;;;;;5092512;28;20961;-67
2023/07/04 11:00:04;;;;;;;10.30;4.00;;;27.00;1.00;;;;;;5092864;28;20460;-67
2023/07/04 11:02:34;;;;;;;11.33;3.80;;;25.90;1.00;;;;;;5092891;28;20459;-67
2023/07/04 11:05:08;;;;;;;9.50;4.63;;;26.20;1.00;;;;;;5092138;28;20496;-67
2023/07/04 11:07:39;;;;;;;7.90;3.73;;;26.50;1.00;;;;;;5092491;28;20445;-67
2023/07/04 11:10:11;;;;;;;18.30;4.67;;;26.80;1.00;;;;;;5092436;28;20967;-67
2023/07/04 11:12:41;;;;;;;11.50;3.93;;;26.20;1.00;;;;;;5092489;28;20459;-67
2023/07/04 11:15:19;;;;;;;9.20;3.83;;;26.10;1.00;;;;;;5092012;28;20451;-67
2023/07/04 11:17:47;;;;;;;12.37;4.50;;;26.10;1.00;;;;;;5092542;28;20457;-67
2023/07/04 11:20:19;;;;;;;9.90;3.90;;;26.60;1.00;;;;;;5092337;28;21055;-67
2023/07/04 11:22:54;;;;;;;10.67;3.80;;;27.40;1.00;;;;;;5092566;28;20457;-68
2023/07/04 11:25:30;;;;;;;10.13;4.60;;;27.00;1.00;;;;;;5092102;28;20944;-67
2023/07/04 11:28:14;;;;;;;12.00;4.53;;;27.60;1.00;;;;;;5092274;28;20452;-67
2023/07/04 11:30:44;;;;;;;13.83;4.50;;;27.00;1.00;;;;;;5092079;28;20509;-67
2023/07/04 11:33:34;;;;;;;13.37;4.33;;;26.20;1.00;;;;;;5092443;28;20469;-67
2023/07/04 11:36:04;;;;;;;11.10;4.00;;;26.10;1.00;;;;;;5092029;28;20833;-67
2023/07/04 11:38:31;;;;;;;15.43;4.50;;;26.50;1.00;;;;;;5092262;28;20462;-67
2023/07/04 11:41:02;;;;;;;11.03;4.80;;;26.50;1.00;;;;;;5092005;28;20527;-67
2023/07/04 11:43:35;;;;;;;10.73;4.20;;;27.20;1.00;;;;;;5092386;28;20875;-65
2023/07/04 11:46:04;;;;;;;16.53;4.70;;;27.00;1.00;;;;;;5093688;28;20443;-65
2023/07/04 11:48:33;;;;;;;10.70;4.53;;;26.70;1.00;;;;;;5093147;28;20454;-65
2023/07/04 11:51:04;;;;;;;8.27;4.07;;;26.10;1.00;;;;;;5093262;28;20449;-65
2023/07/04 11:53:41;;;;;;;10.33;4.03;;;26.30;1.00;;;;;;5092607;28;20486;-65
2023/07/04 11:56:17;;;;;;;11.03;4.70;;;26.50;1.00;;;;;;5094440;28;20966;-65
2023/07/04 11:58:45;;;;;;;13.97;5.10;;;26.70;1.00;;;;;;5097314;28;20444;-66
2023/07/04 12:01:13;;;;;;;9.37;4.53;;;26.70;1.00;;;;;;5096848;28;20943;-65
2023/07/04 12:03:58;;;;;;;12.50;5.83;;;27.30;1.00;;;;;;5096528;28;20507;-66
2023/07/04 12:06:59;;;;;;;10.50;4.60;;;26.90;1.00;;;;;;5097398;28;20436;-65
2023/07/04 12:09:31;;;;;;;10.80;5.10;;;27.00;1.00;;;;;;5097126;28;20855;-65
2023/07/04 12:12:01;;;;;;;9.03;4.57;;;26.70;1.00;;;;;;5096888;28;20422;-65
2023/07/04 12:14:29;;;;;;;11.00;4.77;;;27.40;1.00;;;;;;5096346;28;20795;-65
2023/07/04 12:16:59;;;;;;;12.80;5.30;;;27.90;1.00;;;;;;5096971;28;20479;-65
2023/07/04 12:19:25;;;;;;;12.90;5.00;;;27.70;1.00;;;;;;5097009;28;20439;-66
2023/07/04 12:21:53;;;;;;;11.80;5.40;;;27.60;1.00;;;;;;5096025;28;20452;-66
2023/07/04 12:24:22;;;;;;;12.60;5.83;;;27.30;1.00;;;;;;5096502;28;20205;-66
2023/07/04 12:26:57;;;;;;;10.43;5.03;;;27.40;1.00;;;;;;5097294;28;20455;-66
2023/07/04 12:29:26;;;;;;;11.68;6.43;;;26.90;1.00;;;;;;5095924;28;20448;-66
2023/07/04 12:32:07;;;;;;;15.90;5.70;;;26.70;1.00;;;;;;5096042;28;20719;-66
2023/07/04 12:34:35;;;;;;;11.87;5.33;;;27.00;1.00;;;;;;5095799;28;20459;-66
2023/07/04 12:37:05;;;;;;;11.27;4.90;;;27.30;1.00;;;;;;5096420;28;20533;-66
2023/07/04 12:39:42;;;;;;;10.63;6.37;;;27.00;1.00;;;;;;5096538;28;20452;-65
2023/07/04 12:42:13;;;;;;;13.37;5.90;;;28.10;1.00;;;;;;5094761;28;20457;-64
2023/07/04 12:44:41;;;;;;;13.20;6.10;;;28.60;1.00;;;;;;5032082;28;20905;-65
2023/07/04 12:47:15;;;;;;;13.30;5.77;;;29.40;1.00;;;;;;5052988;28;20481;-65
2023/07/04 12:49:42;;;;;;;14.23;5.90;;;29.60;1.00;;;;;;5053144;28;20456;-64